sensor_id;sensor_type;location;lat;lon;timestamp;pressure;altitude;pressure_sealevel;temperature;humidity
79584;BME280;69053;57.338;18.700;2023-06-26T00:03:40;101672.63;;;11.51;79.89
79584;BME280;69053;57.338;18.700;2023-06-26T00:08:43;101666.94;;;11.45;80.04
79584;BME280;69053;57.338;18.700;2023-06-26T00:13:45;101661.63;;;11.37;80.15
79584;BME280;69053;57.338;18.700;2023-06-26T00:18:49;101665.94;;;11.25;81.10
79584;BME280;69053;57.338;18.700;2023-06-26T00:23:55;101665.88;;;11.18;81.46
79584;BME280;69053;57.338;18.700;2023-06-26T00:29:00;101662.19;;;11.04;81.82
79584;BME280;69053;57.338;18.700;2023-06-26T00:34:09;101659.13;;;10.93;81.89
79584;BME280;69053;57.338;18.700;2023-06-26T00:39:11;101664.34;;;10.87;81.64
79584;BME280;69053;57.338;18.700;2023-06-26T00:44:13;101656.34;;;10.86;81.65
79584;BME280;69053;57.338;18.700;2023-06-26T00:49:16;101649.59;;;10.82;81.22
79584;BME280;69053;57.338;18.700;2023-06-26T00:54:22;101650.75;;;10.73;81.73
79584;BME280;69053;57.338;18.700;2023-06-26T00:59:25;101645.44;;;10.64;81.35
79584;BME280;69053;57.338;18.700;2023-06-26T01:04:27;101644.94;;;10.54;81.76
79584;BME280;69053;57.338;18.700;2023-06-26T01:09:34;101650.50;;;10.46;81.39
79584;BME280;69053;57.338;18.700;2023-06-26T01:14:37;101644.69;;;10.34;81.88
79584;BME280;69053;57.338;18.700;2023-06-26T01:19:39;101637.06;;;10.29;82.71
79584;BME280;69053;57.338;18.700;2023-06-26T01:24:54;101632.03;;;10.26;82.58
79584;BME280;69053;57.338;18.700;2023-06-26T01:30:02;101625.81;;;10.18;82.16
79584;BME280;69053;57.338;18.700;2023-06-26T01:35:27;101627.44;;;10.12;82.37
79584;BME280;69053;57.338;18.700;2023-06-26T01:40:32;101619.78;;;10.01;82.82
79584;BME280;69053;57.338;18.700;2023-06-26T01:45:34;101620.59;;;10.01;82.71
79584;BME280;69053;57.338;18.700;2023-06-26T01:50:40;101613.47;;;10.00;82.45
79584;BME280;69053;57.338;18.700;2023-06-26T01:55:57;101605.09;;;10.02;82.28
79584;BME280;69053;57.338;18.700;2023-06-26T02:01:02;101615.72;;;9.97;82.23
79584;BME280;69053;57.338;18.700;2023-06-26T02:06:06;101622.78;;;9.91;82.62
79584;BME280;69053;57.338;18.700;2023-06-26T02:11:30;101614.53;;;9.84;83.01
79584;BME280;69053;57.338;18.700;2023-06-26T02:16:33;101619.13;;;9.84;83.61
79584;BME280;69053;57.338;18.700;2023-06-26T02:21:36;101618.66;;;9.80;83.92
79584;BME280;69053;57.338;18.700;2023-06-26T02:26:38;101603.00;;;9.82;83.22
79584;BME280;69053;57.338;18.700;2023-06-26T02:31:40;101601.94;;;9.83;83.72
79584;BME280;69053;57.338;18.700;2023-06-26T02:36:41;101604.09;;;9.88;84.05
79584;BME280;69053;57.338;18.700;2023-06-26T02:41:48;101598.94;;;9.93;83.64
79584;BME280;69053;57.338;18.700;2023-06-26T02:46:52;101596.75;;;10.03;83.36
79584;BME280;69053;57.338;18.700;2023-06-26T02:51:55;101598.31;;;10.12;83.35
79584;BME280;69053;57.338;18.700;2023-06-26T02:56:57;101596.34;;;10.21;83.61
79584;BME280;69053;57.338;18.700;2023-06-26T03:02:01;101590.41;;;10.32;83.86
79584;BME280;69053;57.338;18.700;2023-06-26T03:07:24;101589.72;;;10.45;83.90
79584;BME280;69053;57.338;18.700;2023-06-26T03:12:34;101599.13;;;10.64;83.27
79584;BME280;69053;57.338;18.700;2023-06-26T03:17:44;101592.38;;;10.82;83.47
79584;BME280;69053;57.338;18.700;2023-06-26T03:22:50;101597.72;;;10.97;84.17
79584;BME280;69053;57.338;18.700;2023-06-26T03:28:13;101595.72;;;11.05;83.70
79584;BME280;69053;57.338;18.700;2023-06-26T03:33:20;101596.59;;;11.13;84.12
79584;BME280;69053;57.338;18.700;2023-06-26T03:38:43;101586.59;;;11.20;84.51
79584;BME280;69053;57.338;18.700;2023-06-26T03:43:46;101580.84;;;11.43;84.09
79584;BME280;69053;57.338;18.700;2023-06-26T03:48:51;101585.84;;;11.68;83.79
79584;BME280;69053;57.338;18.700;2023-06-26T03:53:57;101584.03;;;11.88;83.55
79584;BME280;69053;57.338;18.700;2023-06-26T03:59:18;101593.00;;;12.10;83.77
79584;BME280;69053;57.338;18.700;2023-06-26T04:04:20;101586.94;;;12.35;83.17
79584;BME280;69053;57.338;18.700;2023-06-26T04:09:20;101580.47;;;12.63;83.98
79584;BME280;69053;57.338;18.700;2023-06-26T04:14:44;101580.06;;;12.99;85.00
79584;BME280;69053;57.338;18.700;2023-06-26T04:19:46;101585.97;;;13.36;83.92
79584;BME280;69053;57.338;18.700;2023-06-26T04:24:49;101582.28;;;13.76;83.59
79584;BME280;69053;57.338;18.700;2023-06-26T04:29:52;101580.88;;;14.12;82.94
79584;BME280;69053;57.338;18.700;2023-06-26T04:35:02;101566.47;;;14.55;83.44
79584;BME280;69053;57.338;18.700;2023-06-26T04:40:04;101567.56;;;15.04;83.28
79584;BME280;69053;57.338;18.700;2023-06-26T05:21:17;101557.50;;;17.76;81.61
79584;BME280;69053;57.338;18.700;2023-06-26T05:33:10;101556.06;;;18.14;80.70
79584;BME280;69053;57.338;18.700;2023-06-26T05:38:43;101546.34;;;18.40;80.10
79584;BME280;69053;57.338;18.700;2023-06-26T05:44:20;101552.41;;;18.71;79.55
79584;BME280;69053;57.338;18.700;2023-06-26T05:49:26;101553.25;;;19.05;78.24
79584;BME280;69053;57.338;18.700;2023-06-26T05:54:33;101545.69;;;19.35;77.10
79584;BME280;69053;57.338;18.700;2023-06-26T05:59:54;101546.72;;;19.51;76.50
79584;BME280;69053;57.338;18.700;2023-06-26T06:05:03;101550.31;;;19.73;76.09
79584;BME280;69053;57.338;18.700;2023-06-26T06:10:10;101553.94;;;19.96;75.57
79584;BME280;69053;57.338;18.700;2023-06-26T06:21:57;101547.66;;;20.28;70.09
79584;BME280;69053;57.338;18.700;2023-06-26T06:27:57;101546.91;;;20.65;65.48
79584;BME280;69053;57.338;18.700;2023-06-26T06:33:35;101546.38;;;21.00;63.97
79584;BME280;69053;57.338;18.700;2023-06-26T06:39:08;101546.81;;;21.24;61.89
79584;BME280;69053;57.338;18.700;2023-06-26T06:44:24;101545.19;;;21.28;62.48
79584;BME280;69053;57.338;18.700;2023-06-26T06:49:38;101541.91;;;21.42;63.74
79584;BME280;69053;57.338;18.700;2023-06-26T06:55:08;101534.75;;;21.46;63.00
79584;BME280;69053;57.338;18.700;2023-06-26T07:00:31;101535.44;;;21.68;60.18
79584;BME280;69053;57.338;18.700;2023-06-26T07:05:41;101524.16;;;21.90;61.19
79584;BME280;69053;57.338;18.700;2023-06-26T07:11:08;101532.53;;;22.16;62.16
79584;BME280;69053;57.338;18.700;2023-06-26T07:16:38;101519.81;;;22.41;61.66
79584;BME280;69053;57.338;18.700;2023-06-26T07:22:40;101522.06;;;22.75;62.26
79584;BME280;69053;57.338;18.700;2023-06-26T07:28:36;101508.16;;;22.85;62.12
79584;BME280;69053;57.338;18.700;2023-06-26T07:33:42;101517.84;;;22.93;62.81
79584;BME280;69053;57.338;18.700;2023-06-26T07:45:43;101506.09;;;23.42;59.45
79584;BME280;69053;57.338;18.700;2023-06-26T07:51:12;101510.19;;;23.60;57.83
79584;BME280;69053;57.338;18.700;2023-06-26T07:57:19;101504.06;;;24.18;56.68
79584;BME280;69053;57.338;18.700;2023-06-26T08:03:18;101499.84;;;24.26;55.49
79584;BME280;69053;57.338;18.700;2023-06-26T08:09:04;101498.94;;;24.30;54.48
79584;BME280;69053;57.338;18.700;2023-06-26T08:15:17;101494.47;;;24.34;53.54
79584;BME280;69053;57.338;18.700;2023-06-26T08:21:09;101488.16;;;24.58;52.45
79584;BME280;69053;57.338;18.700;2023-06-26T08:27:09;101483.78;;;24.81;52.20
79584;BME280;69053;57.338;18.700;2023-06-26T08:32:31;101487.31;;;24.92;51.29
79584;BME280;69053;57.338;18.700;2023-06-26T08:38:16;101487.19;;;25.02;50.34
79584;BME280;69053;57.338;18.700;2023-06-26T08:43:19;101486.41;;;25.26;50.32
79584;BME280;69053;57.338;18.700;2023-06-26T08:48:22;101475.00;;;25.47;50.20
79584;BME280;69053;57.338;18.700;2023-06-26T08:53:29;101476.09;;;25.70;48.86
79584;BME280;69053;57.338;18.700;2023-06-26T08:58:35;101472.34;;;25.98;47.17
79584;BME280;69053;57.338;18.700;2023-06-26T09:03:37;101471.81;;;26.15;46.57
79584;BME280;69053;57.338;18.700;2023-06-26T09:08:38;101471.88;;;26.29;46.01
79584;BME280;69053;57.338;18.700;2023-06-26T09:13:39;101466.22;;;26.34;45.94
79584;BME280;69053;57.338;18.700;2023-06-26T09:18:44;101465.88;;;26.55;44.73
79584;BME280;69053;57.338;18.700;2023-06-26T09:23:45;101467.84;;;26.54;45.34
79584;BME280;69053;57.338;18.700;2023-06-26T09:28:48;101467.47;;;26.75;45.04
79584;BME280;69053;57.338;18.700;2023-06-26T09:33:57;101456.34;;;27.03;44.44
79584;BME280;69053;57.338;18.700;2023-06-26T09:39:00;101458.94;;;27.13;43.42
79584;BME280;69053;57.338;18.700;2023-06-26T09:44:02;101464.84;;;27.11;43.11
79584;BME280;69053;57.338;18.700;2023-06-26T09:49:03;101460.69;;;27.09;42.90
79584;BME280;69053;57.338;18.700;2023-06-26T09:54:05;101459.97;;;27.17;41.99
79584;BME280;69053;57.338;18.700;2023-06-26T09:59:06;101457.19;;;27.45;41.32
79584;BME280;69053;57.338;18.700;2023-06-26T10:04:07;101451.34;;;27.69;39.88
79584;BME280;69053;57.338;18.700;2023-06-26T10:09:08;101454.41;;;27.81;39.83
79584;BME280;69053;57.338;18.700;2023-06-26T10:14:11;101449.88;;;27.72;40.20
79584;BME280;69053;57.338;18.700;2023-06-26T10:19:13;101444.22;;;27.99;40.13
79584;BME280;69053;57.338;18.700;2023-06-26T10:24:14;101445.88;;;28.00;39.96
79584;BME280;69053;57.338;18.700;2023-06-26T10:29:16;101441.94;;;28.24;37.50
79584;BME280;69053;57.338;18.700;2023-06-26T10:34:17;101443.09;;;28.23;37.93
79584;BME280;69053;57.338;18.700;2023-06-26T10:44:46;101438.00;;;28.25;39.78
79584;BME280;69053;57.338;18.700;2023-06-26T10:49:47;101425.81;;;28.52;39.13
79584;BME280;69053;57.338;18.700;2023-06-26T10:54:48;101415.25;;;28.49;39.42
79584;BME280;69053;57.338;18.700;2023-06-26T10:59:48;101416.81;;;28.64;39.13
79584;BME280;69053;57.338;18.700;2023-06-26T11:04:53;101415.19;;;28.63;38.72
79584;BME280;69053;57.338;18.700;2023-06-26T11:10:01;101411.03;;;28.60;39.04
79584;BME280;69053;57.338;18.700;2023-06-26T11:15:09;101404.31;;;28.70;39.99
79584;BME280;69053;57.338;18.700;2023-06-26T11:20:12;101394.69;;;28.94;38.95
79584;BME280;69053;57.338;18.700;2023-06-26T11:25:14;101393.38;;;29.00;37.46
79584;BME280;69053;57.338;18.700;2023-06-26T11:30:25;101388.97;;;29.08;36.69
79584;BME280;69053;57.338;18.700;2023-06-26T11:35:26;101389.44;;;29.01;36.97
79584;BME280;69053;57.338;18.700;2023-06-26T11:40:34;101398.28;;;29.34;36.14
79584;BME280;69053;57.338;18.700;2023-06-26T11:45:35;101389.69;;;29.22;35.25
79584;BME280;69053;57.338;18.700;2023-06-26T11:50:37;101370.28;;;29.03;35.33
79584;BME280;69053;57.338;18.700;2023-06-26T11:55:41;101380.44;;;29.22;33.96
79584;BME280;69053;57.338;18.700;2023-06-26T12:00:47;101376.94;;;29.07;33.77
79584;BME280;69053;57.338;18.700;2023-06-26T12:05:48;101380.78;;;29.38;34.10
79584;BME280;69053;57.338;18.700;2023-06-26T12:10:50;101377.00;;;29.68;34.89
79584;BME280;69053;57.338;18.700;2023-06-26T12:15:50;101365.94;;;29.72;34.12
79584;BME280;69053;57.338;18.700;2023-06-26T12:20:52;101361.81;;;30.04;33.79
79584;BME280;69053;57.338;18.700;2023-06-26T12:25:53;101366.13;;;30.02;32.33
79584;BME280;69053;57.338;18.700;2023-06-26T12:31:21;101360.19;;;29.86;34.36
79584;BME280;69053;57.338;18.700;2023-06-26T12:36:22;101358.72;;;29.80;34.15
79584;BME280;69053;57.338;18.700;2023-06-26T12:41:29;101369.47;;;29.86;31.84
79584;BME280;69053;57.338;18.700;2023-06-26T12:46:37;101354.59;;;29.77;32.89
79584;BME280;69053;57.338;18.700;2023-06-26T12:51:38;101344.19;;;29.86;32.91
79584;BME280;69053;57.338;18.700;2023-06-26T12:56:40;101349.28;;;29.84;33.37
79584;BME280;69053;57.338;18.700;2023-06-26T13:01:41;101337.03;;;30.06;32.63
79584;BME280;69053;57.338;18.700;2023-06-26T13:06:45;101339.06;;;29.88;32.15
79584;BME280;69053;57.338;18.700;2023-06-26T13:11:45;101327.50;;;29.81;32.79
79584;BME280;69053;57.338;18.700;2023-06-26T13:16:49;101328.41;;;30.20;33.41
79584;BME280;69053;57.338;18.700;2023-06-26T13:21:52;101324.13;;;30.14;33.20
79584;BME280;69053;57.338;18.700;2023-06-26T13:26:53;101317.25;;;29.85;33.72
79584;BME280;69053;57.338;18.700;2023-06-26T13:31:54;101316.91;;;29.87;33.29
79584;BME280;69053;57.338;18.700;2023-06-26T13:36:54;101303.88;;;29.56;33.45
79584;BME280;69053;57.338;18.700;2023-06-26T13:41:55;101311.13;;;29.92;33.75
79584;BME280;69053;57.338;18.700;2023-06-26T13:46:55;101304.97;;;30.07;34.08
79584;BME280;69053;57.338;18.700;2023-06-26T13:51:56;101294.84;;;30.15;34.24
79584;BME280;69053;57.338;18.700;2023-06-26T13:56:56;101291.19;;;30.23;33.35
79584;BME280;69053;57.338;18.700;2023-06-26T14:02:00;101293.72;;;30.16;33.47
79584;BME280;69053;57.338;18.700;2023-06-26T14:07:00;101281.50;;;30.03;34.03
79584;BME280;69053;57.338;18.700;2023-06-26T14:12:01;101272.56;;;30.10;34.73
79584;BME280;69053;57.338;18.700;2023-06-26T14:17:02;101270.69;;;30.32;34.12
79584;BME280;69053;57.338;18.700;2023-06-26T14:22:03;101265.81;;;30.11;35.71
79584;BME280;69053;57.338;18.700;2023-06-26T14:27:03;101264.06;;;29.80;35.29
79584;BME280;69053;57.338;18.700;2023-06-26T14:32:05;101248.84;;;29.90;36.10
79584;BME280;69053;57.338;18.700;2023-06-26T14:37:06;101250.94;;;30.10;36.40
79584;BME280;69053;57.338;18.700;2023-06-26T14:42:07;101242.84;;;30.09;36.09
79584;BME280;69053;57.338;18.700;2023-06-26T14:47:07;101250.19;;;29.66;36.44
79584;BME280;69053;57.338;18.700;2023-06-26T14:52:11;101236.22;;;29.40;36.25
79584;BME280;69053;57.338;18.700;2023-06-26T14:57:11;101228.13;;;29.30;37.30
79584;BME280;69053;57.338;18.700;2023-06-26T15:02:12;101227.97;;;29.26;37.28
79584;BME280;69053;57.338;18.700;2023-06-26T15:07:12;101222.19;;;29.23;37.60
79584;BME280;69053;57.338;18.700;2023-06-26T15:12:13;101222.47;;;29.04;37.32
79584;BME280;69053;57.338;18.700;2023-06-26T15:17:14;101208.81;;;28.93;38.24
79584;BME280;69053;57.338;18.700;2023-06-26T15:22:17;101208.34;;;29.26;37.23
79584;BME280;69053;57.338;18.700;2023-06-26T15:27:18;101203.19;;;29.37;37.19
79584;BME280;69053;57.338;18.700;2023-06-26T15:32:19;101201.06;;;29.16;38.02
79584;BME280;69053;57.338;18.700;2023-06-26T15:37:20;101194.94;;;28.97;38.54
79584;BME280;69053;57.338;18.700;2023-06-26T15:42:20;101189.31;;;28.79;38.39
79584;BME280;69053;57.338;18.700;2023-06-26T15:47:21;101181.25;;;28.87;38.51
79584;BME280;69053;57.338;18.700;2023-06-26T15:52:21;101184.72;;;28.75;39.15
79584;BME280;69053;57.338;18.700;2023-06-26T15:57:22;101173.66;;;28.70;38.92
79584;BME280;69053;57.338;18.700;2023-06-26T16:02:22;101174.47;;;28.79;39.55
79584;BME280;69053;57.338;18.700;2023-06-26T16:07:23;101170.38;;;28.94;38.66
79584;BME280;69053;57.338;18.700;2023-06-26T16:12:24;101165.91;;;29.19;38.48
79584;BME280;69053;57.338;18.700;2023-06-26T16:17:24;101171.50;;;29.36;38.03
79584;BME280;69053;57.338;18.700;2023-06-26T16:22:25;101164.25;;;29.09;38.23
79584;BME280;69053;57.338;18.700;2023-06-26T16:27:25;101148.59;;;28.73;38.99
79584;BME280;69053;57.338;18.700;2023-06-26T16:32:26;101148.59;;;28.91;38.71
79584;BME280;69053;57.338;18.700;2023-06-26T16:37:26;101146.28;;;28.84;39.37
79584;BME280;69053;57.338;18.700;2023-06-26T16:42:27;101142.97;;;28.91;39.31
79584;BME280;69053;57.338;18.700;2023-06-26T16:47:27;101144.47;;;29.06;39.49
79584;BME280;69053;57.338;18.700;2023-06-26T16:52:30;101134.72;;;29.03;38.66
79584;BME280;69053;57.338;18.700;2023-06-26T16:57:31;101138.16;;;28.48;39.81
79584;BME280;69053;57.338;18.700;2023-06-26T17:02:31;101130.44;;;28.79;39.60
79584;BME280;69053;57.338;18.700;2023-06-26T17:07:33;101127.94;;;28.60;39.62
79584;BME280;69053;57.338;18.700;2023-06-26T17:12:38;101130.28;;;28.67;39.87
79584;BME280;69053;57.338;18.700;2023-06-26T17:17:38;101128.81;;;28.78;39.59
79584;BME280;69053;57.338;18.700;2023-06-26T17:22:39;101126.34;;;28.11;40.74
79584;BME280;69053;57.338;18.700;2023-06-26T17:27:39;101128.81;;;28.03;40.62
79584;BME280;69053;57.338;18.700;2023-06-26T17:32:40;101130.16;;;28.06;40.67
79584;BME280;69053;57.338;18.700;2023-06-26T17:37:41;101132.31;;;27.78;41.29
79584;BME280;69053;57.338;18.700;2023-06-26T17:42:42;101141.00;;;27.67;41.30
79584;BME280;69053;57.338;18.700;2023-06-26T17:47:42;101126.69;;;26.92;42.84
79584;BME280;69053;57.338;18.700;2023-06-26T17:52:43;101119.91;;;25.79;44.66
79584;BME280;69053;57.338;18.700;2023-06-26T17:57:44;101122.50;;;25.09;45.96
79584;BME280;69053;57.338;18.700;2023-06-26T18:02:44;101115.00;;;24.53;47.31
79584;BME280;69053;57.338;18.700;2023-06-26T18:07:45;101109.63;;;24.19;48.03
79584;BME280;69053;57.338;18.700;2023-06-26T18:12:45;101109.78;;;23.84;48.46
79584;BME280;69053;57.338;18.700;2023-06-26T18:17:52;101111.94;;;23.34;49.48
79584;BME280;69053;57.338;18.700;2023-06-26T18:22:53;101112.19;;;23.03;50.40
79584;BME280;69053;57.338;18.700;2023-06-26T18:27:55;101104.56;;;22.84;50.98
79584;BME280;69053;57.338;18.700;2023-06-26T18:32:56;101098.56;;;22.67;51.45
79584;BME280;69053;57.338;18.700;2023-06-26T18:43:02;101077.44;;;22.26;52.67
79584;BME280;69053;57.338;18.700;2023-06-26T18:48:02;101088.06;;;22.04;53.09
79584;BME280;69053;57.338;18.700;2023-06-26T18:53:05;101075.41;;;21.82;53.51
79584;BME280;69053;57.338;18.700;2023-06-26T18:58:05;101085.47;;;21.63;54.13
79584;BME280;69053;57.338;18.700;2023-06-26T19:03:06;101070.22;;;21.40;54.83
79584;BME280;69053;57.338;18.700;2023-06-26T19:08:07;101077.50;;;21.15;55.56
79584;BME280;69053;57.338;18.700;2023-06-26T19:13:07;101078.88;;;20.92;56.08
79584;BME280;69053;57.338;18.700;2023-06-26T19:18:08;101075.00;;;20.77;56.46
79584;BME280;69053;57.338;18.700;2023-06-26T19:23:09;101072.44;;;20.55;56.88
79584;BME280;69053;57.338;18.700;2023-06-26T19:28:09;101087.63;;;20.32;57.50
79584;BME280;69053;57.338;18.700;2023-06-26T19:33:12;101080.66;;;20.19;57.96
79584;BME280;69053;57.338;18.700;2023-06-26T19:38:12;101081.72;;;20.03;58.57
79584;BME280;69053;57.338;18.700;2023-06-26T19:43:13;101075.53;;;19.85;59.10
79584;BME280;69053;57.338;18.700;2023-06-26T19:48:13;101069.06;;;19.64;59.90
79584;BME280;69053;57.338;18.700;2023-06-26T19:53:14;101080.91;;;19.55;60.26
79584;BME280;69053;57.338;18.700;2023-06-26T19:58:14;101069.47;;;19.41;60.52
79584;BME280;69053;57.338;18.700;2023-06-26T20:03:15;101066.31;;;19.22;61.34
79584;BME280;69053;57.338;18.700;2023-06-26T20:08:15;101055.19;;;19.11;61.37
79584;BME280;69053;57.338;18.700;2023-06-26T20:13:16;101056.28;;;19.05;61.12
79584;BME280;69053;57.338;18.700;2023-06-26T20:18:17;101057.28;;;18.94;61.77
79584;BME280;69053;57.338;18.700;2023-06-26T20:23:18;101054.94;;;18.81;61.63
79584;BME280;69053;57.338;18.700;2023-06-26T20:28:18;101055.94;;;18.69;62.11
79584;BME280;69053;57.338;18.700;2023-06-26T20:33:22;101058.09;;;18.62;62.00
79584;BME280;69053;57.338;18.700;2023-06-26T20:38:23;101046.69;;;18.53;62.86
79584;BME280;69053;57.338;18.700;2023-06-26T20:43:27;101039.72;;;18.46;63.20
79584;BME280;69053;57.338;18.700;2023-06-26T20:48:27;101033.63;;;18.44;63.36
79584;BME280;69053;57.338;18.700;2023-06-26T20:53:28;101028.63;;;18.41;63.61
79584;BME280;69053;57.338;18.700;2023-06-26T20:58:29;101020.31;;;18.35;63.79
79584;BME280;69053;57.338;18.700;2023-06-26T21:03:29;101021.16;;;18.36;63.65
79584;BME280;69053;57.338;18.700;2023-06-26T21:08:30;101016.41;;;18.31;63.84
79584;BME280;69053;57.338;18.700;2023-06-26T21:13:30;101015.53;;;18.26;64.22
79584;BME280;69053;57.338;18.700;2023-06-26T21:18:31;101000.03;;;18.20;64.21
79584;BME280;69053;57.338;18.700;2023-06-26T21:23:31;101004.13;;;18.17;64.59
79584;BME280;69053;57.338;18.700;2023-06-26T21:28:32;100992.28;;;18.16;64.36
79584;BME280;69053;57.338;18.700;2023-06-26T21:33:32;100982.88;;;18.12;64.40
79584;BME280;69053;57.338;18.700;2023-06-26T21:38:33;100985.06;;;18.10;65.92
79584;BME280;69053;57.338;18.700;2023-06-26T21:43:33;100983.63;;;18.08;66.06
79584;BME280;69053;57.338;18.700;2023-06-26T21:48:34;100975.88;;;18.05;66.20
79584;BME280;69053;57.338;18.700;2023-06-26T21:53:36;100961.53;;;18.03;66.13
79584;BME280;69053;57.338;18.700;2023-06-26T21:58:36;100954.88;;;17.98;67.70
79584;BME280;69053;57.338;18.700;2023-06-26T22:03:37;100956.72;;;17.93;68.12
79584;BME280;69053;57.338;18.700;2023-06-26T22:08:37;100958.09;;;17.90;67.91
79584;BME280;69053;57.338;18.700;2023-06-26T22:13:38;100947.59;;;17.87;68.83
79584;BME280;69053;57.338;18.700;2023-06-26T22:18:38;100937.69;;;17.86;69.49
79584;BME280;69053;57.338;18.700;2023-06-26T22:23:42;100944.84;;;17.87;69.38
79584;BME280;69053;57.338;18.700;2023-06-26T22:28:43;100943.41;;;17.85;70.13
79584;BME280;69053;57.338;18.700;2023-06-26T22:33:43;100935.41;;;17.83;70.41
79584;BME280;69053;57.338;18.700;2023-06-26T22:38:44;100929.91;;;17.83;70.24
79584;BME280;69053;57.338;18.700;2023-06-26T22:43:44;100922.13;;;17.80;70.79
79584;BME280;69053;57.338;18.700;2023-06-26T22:48:45;100927.09;;;17.78;71.68
79584;BME280;69053;57.338;18.700;2023-06-26T22:53:45;100916.88;;;17.78;72.56
79584;BME280;69053;57.338;18.700;2023-06-26T22:58:46;100917.13;;;17.77;72.53
79584;BME280;69053;57.338;18.700;2023-06-26T23:03:46;100905.81;;;17.73;73.08
79584;BME280;69053;57.338;18.700;2023-06-26T23:08:47;100906.06;;;17.72;73.60
79584;BME280;69053;57.338;18.700;2023-06-26T23:13:48;100902.19;;;17.68;74.40
79584;BME280;69053;57.338;18.700;2023-06-26T23:18:49;100891.41;;;17.66;74.51
79584;BME280;69053;57.338;18.700;2023-06-26T23:23:49;100904.88;;;17.62;74.42
79584;BME280;69053;57.338;18.700;2023-06-26T23:28:53;100919.41;;;17.58;75.06
79584;BME280;69053;57.338;18.700;2023-06-26T23:33:54;100950.47;;;17.53;74.33
79584;BME280;69053;57.338;18.700;2023-06-26T23:38:54;100949.91;;;17.51;74.42
79584;BME280;69053;57.338;18.700;2023-06-26T23:43:55;100937.81;;;17.52;75.40
79584;BME280;69053;57.338;18.700;2023-06-26T23:48:55;100947.59;;;17.43;76.10
79584;BME280;69053;57.338;18.700;2023-06-26T23:53:56;100937.81;;;17.30;76.83
79584;BME280;69053;57.338;18.700;2023-06-26T23:58:56;100933.50;;;17.17;75.83
